Time;durP1;ratioP1;P1;durP2;ratioP2;P2;SDS_P1;SDS_P2;PMS_P1;PMS_P2;Temp;Humidity;BMP_temperature;BMP_pressure;BME280_temperature;BME280_humidity;BME280_pressure;Samples;Min_cycle;Max_cycle;Signal;HPM_P1;HPM_P2
2023/08/02 00:00:38;;;;;;;1.63;0.95;;;;;;;;;;5029230;28;20029;-77
2023/08/02 00:03:04;;;;;;;1.77;0.85;;;;;;;;;;5029643;28;20037;-77
2023/08/02 00:05:30;;;;;;;1.00;0.90;;;;;;;;;;5030279;28;20022;-77
2023/08/02 00:07:56;;;;;;;2.20;1.10;;;;;;;;;;5013099;28;20088;-77
2023/08/02 00:10:21;;;;;;;3.92;0.77;;;;;;;;;;5029427;28;20085;-77
2023/08/02 00:12:51;;;;;;;1.67;0.90;;;;;;;;;;5028809;28;20140;-78
2023/08/02 00:15:17;;;;;;;1.73;1.15;;;;;;;;;;5028671;28;20095;-77
2023/08/02 00:17:43;;;;;;;2.78;1.10;;;;;;;;;;5028995;28;20056;-77
2023/08/02 00:20:08;;;;;;;2.00;0.88;;;;;;;;;;5030559;28;20423;-78
2023/08/02 00:22:34;;;;;;;4.28;1.85;;;;;;;;;;5030071;28;20029;-78
2023/08/02 00:24:59;;;;;;;4.78;1.10;;;;;;;;;;5028485;28;20075;-77
2023/08/02 00:27:25;;;;;;;2.35;1.25;;;;;;;;;;5030259;28;20057;-77
2023/08/02 00:29:50;;;;;;;1.48;1.00;;;;;;;;;;5028955;28;20025;-77
2023/08/02 00:32:18;;;;;;;1.20;0.93;;;;;;;;;;5028717;28;20401;-77
2023/08/02 00:34:44;;;;;;;3.72;1.17;;;;;;;;;;5029151;28;20420;-77
2023/08/02 00:37:09;;;;;;;1.10;0.80;;;;;;;;;;5029150;28;20120;-78
2023/08/02 00:39:35;;;;;;;1.40;0.73;;;;;;;;;;5032540;28;20075;-78
2023/08/02 00:42:00;;;;;;;0.98;0.85;;;;;;;;;;5032619;28;20017;-78
2023/08/02 00:44:26;;;;;;;2.80;0.90;;;;;;;;;;5034199;28;20049;-78
2023/08/02 00:46:53;;;;;;;2.13;0.85;;;;;;;;;;5035286;28;20025;-78
2023/08/02 00:49:18;;;;;;;1.35;0.95;;;;;;;;;;5032683;28;20036;-78
2023/08/02 00:51:44;;;;;;;1.35;0.90;;;;;;;;;;5033072;28;20026;-79
2023/08/02 00:54:10;;;;;;;1.77;0.82;;;;;;;;;;5031939;28;20033;-79
2023/08/02 00:56:36;;;;;;;0.80;0.80;;;;;;;;;;5032413;28;20053;-79
2023/08/02 00:59:02;;;;;;;1.23;0.88;;;;;;;;;;5032473;28;20029;-79
2023/08/02 01:01:27;;;;;;;0.70;0.60;;;;;;;;;;5035159;28;20470;-80
2023/08/02 01:03:56;;;;;;;2.65;1.15;;;;;;;;;;5033655;28;20025;-79
2023/08/02 01:06:59;;;;;;;1.63;0.82;;;;;;;;;;5034116;28;20505;-78
2023/08/02 01:09:30;;;;;;;1.23;1.05;;;;;;;;;;4956467;28;20118;-78
2023/08/02 01:12:22;;;;;;;1.02;0.70;;;;;;;;;;5020867;28;20055;-78
2023/08/02 01:14:51;;;;;;;1.50;0.82;;;;;;;;;;5031224;28;20112;-78
2023/08/02 01:17:17;;;;;;;0.90;0.90;;;;;;;;;;5033549;28;20128;-78
2023/08/02 01:19:43;;;;;;;2.83;0.82;;;;;;;;;;5033998;28;20436;-78
2023/08/02 01:22:08;;;;;;;2.22;0.90;;;;;;;;;;5040995;28;20029;-77
2023/08/02 01:24:35;;;;;;;1.60;0.80;;;;;;;;;;5048380;28;20385;-79
2023/08/02 01:27:12;;;;;;;3.97;1.15;;;;;;;;;;5048394;28;20025;-78
2023/08/02 01:29:45;;;;;;;1.85;0.90;;;;;;;;;;5047532;28;20056;-78
2023/08/02 01:32:11;;;;;;;1.63;0.80;;;;;;;;;;5029712;28;20057;-78
2023/08/02 01:34:38;;;;;;;2.60;1.30;;;;;;;;;;5040341;28;20537;-78
2023/08/02 01:37:04;;;;;;;3.05;0.80;;;;;;;;;;5033538;28;20470;-78
2023/08/02 01:39:30;;;;;;;1.83;0.90;;;;;;;;;;5038515;28;20116;-77
2023/08/02 01:41:55;;;;;;;4.75;1.00;;;;;;;;;;5037335;28;20025;-77
2023/08/02 01:44:21;;;;;;;2.75;0.80;;;;;;;;;;5034621;28;20029;-78
2023/08/02 01:46:46;;;;;;;2.42;0.75;;;;;;;;;;5038319;28;20375;-77
2023/08/02 01:49:12;;;;;;;5.70;1.13;;;;;;;;;;5037360;28;20052;-77
2023/08/02 01:51:37;;;;;;;3.90;1.10;;;;;;;;;;5035735;28;20108;-77
2023/08/02 01:54:03;;;;;;;3.03;0.82;;;;;;;;;;5031705;28;20414;-78
2023/08/02 01:56:28;;;;;;;0.85;0.80;;;;;;;;;;5032491;28;20036;-77
2023/08/02 01:58:54;;;;;;;2.67;1.00;;;;;;;;;;5033167;28;20112;-79
2023/08/02 02:01:19;;;;;;;2.25;0.95;;;;;;;;;;5033015;28;20026;-78
2023/08/02 02:03:46;;;;;;;1.23;0.70;;;;;;;;;;5017235;28;20429;-78
2023/08/02 02:06:12;;;;;;;4.88;1.08;;;;;;;;;;5032037;28;20037;-77
2023/08/02 02:08:37;;;;;;;2.38;1.00;;;;;;;;;;5032863;28;20053;-78
2023/08/02 02:11:04;;;;;;;1.80;0.77;;;;;;;;;;5031755;28;20429;-77
2023/08/02 02:13:29;;;;;;;1.08;0.80;;;;;;;;;;5031088;28;20421;-78
2023/08/02 02:15:55;;;;;;;2.42;0.88;;;;;;;;;;5030257;28;20057;-77
2023/08/02 02:18:20;;;;;;;2.95;1.13;;;;;;;;;;5030178;28;20063;-77
2023/08/02 02:20:46;;;;;;;1.17;0.90;;;;;;;;;;5030006;28;20021;-77
2023/08/02 02:23:11;;;;;;;1.80;0.80;;;;;;;;;;5031566;28;20026;-77
2023/08/02 02:25:37;;;;;;;1.27;0.90;;;;;;;;;;5030076;28;20532;-77
2023/08/02 02:28:02;;;;;;;4.57;1.10;;;;;;;;;;5031943;28;20083;-79
2023/08/02 02:30:30;;;;;;;1.63;0.98;;;;;;;;;;5032679;28;20462;-78
2023/08/02 02:32:56;;;;;;;2.30;0.90;;;;;;;;;;5031415;28;20080;-78
2023/08/02 02:35:21;;;;;;;3.15;0.93;;;;;;;;;;5031403;28;20069;-79
2023/08/02 02:37:47;;;;;;;2.00;0.82;;;;;;;;;;5031438;28;20025;-77
2023/08/02 02:40:12;;;;;;;3.42;1.25;;;;;;;;;;5013772;28;20033;-77
2023/08/02 02:42:40;;;;;;;1.17;1.00;;;;;;;;;;5013872;28;20022;-78
2023/08/02 02:45:06;;;;;;;3.08;1.30;;;;;;;;;;5031318;28;20472;-78
2023/08/02 02:47:32;;;;;;;1.98;1.13;;;;;;;;;;5013674;28;20138;-77
2023/08/02 02:49:57;;;;;;;3.03;1.17;;;;;;;;;;5030918;28;20045;-77
2023/08/02 02:52:23;;;;;;;3.55;1.23;;;;;;;;;;5013276;28;20116;-77
2023/08/02 02:54:48;;;;;;;1.10;0.75;;;;;;;;;;5013112;28;20109;-78
2023/08/02 02:57:15;;;;;;;1.50;0.95;;;;;;;;;;5030807;28;20134;-78
2023/08/02 02:59:40;;;;;;;1.63;0.93;;;;;;;;;;5012879;28;20117;-77
2023/08/02 03:02:06;;;;;;;2.88;1.40;;;;;;;;;;5029352;28;20112;-78
2023/08/02 03:04:31;;;;;;;3.63;1.00;;;;;;;;;;5031212;28;20056;-78
2023/08/02 03:06:57;;;;;;;2.45;1.00;;;;;;;;;;5013066;28;20423;-77
2023/08/02 03:09:22;;;;;;;2.33;1.20;;;;;;;;;;5013704;28;20060;-77
2023/08/02 03:11:48;;;;;;;2.15;0.90;;;;;;;;;;5013054;28;20488;-78
2023/08/02 03:14:13;;;;;;;1.17;0.90;;;;;;;;;;5013150;28;20052;-78
2023/08/02 03:16:43;;;;;;;2.08;0.90;;;;;;;;;;5013394;28;20025;-78
2023/08/02 03:19:09;;;;;;;3.53;0.90;;;;;;;;;;5013664;28;20037;-78
2023/08/02 03:21:34;;;;;;;1.33;0.93;;;;;;;;;;5031801;28;20404;-78
2023/08/02 03:24:00;;;;;;;3.28;1.10;;;;;;;;;;5031246;28;20034;-76
2023/08/02 03:26:25;;;;;;;3.85;1.33;;;;;;;;;;5012316;28;20025;-78
2023/08/02 03:28:51;;;;;;;1.95;1.13;;;;;;;;;;5012618;28;20029;-77
2023/08/02 03:31:16;;;;;;;5.68;1.50;;;;;;;;;;5012524;28;20060;-78
2023/08/02 03:33:42;;;;;;;1.40;1.00;;;;;;;;;;5029320;28;20042;-78
2023/08/02 03:36:07;;;;;;;9.82;1.42;;;;;;;;;;5022405;28;20351;-79
2023/08/02 03:38:33;;;;;;;3.42;1.40;;;;;;;;;;5031095;28;20044;-78
2023/08/02 03:40:59;;;;;;;2.38;0.93;;;;;;;;;;5019484;28;20037;-78
2023/08/02 03:43:24;;;;;;;1.85;1.00;;;;;;;;;;5009532;28;20026;-78
2023/08/02 03:45:50;;;;;;;2.38;1.10;;;;;;;;;;5009366;28;20556;-78
2023/08/02 03:48:16;;;;;;;2.38;1.05;;;;;;;;;;5009205;28;20033;-78
2023/08/02 03:50:42;;;;;;;1.60;0.90;;;;;;;;;;5017777;28;20405;-78
2023/08/02 03:53:07;;;;;;;4.65;1.20;;;;;;;;;;5029412;28;20052;-78
2023/08/02 03:55:33;;;;;;;1.60;1.13;;;;;;;;;;5029048;28;20029;-78
2023/08/02 03:57:58;;;;;;;6.40;1.30;;;;;;;;;;5029423;28;20030;-78
2023/08/02 04:00:24;;;;;;;2.47;1.00;;;;;;;;;;5029645;28;20424;-79
2023/08/02 04:02:50;;;;;;;3.35;1.83;;;;;;;;;;5013582;28;20112;-78
2023/08/02 04:05:15;;;;;;;3.30;1.48;;;;;;;;;;5030059;28;20049;-78
2023/08/02 04:07:41;;;;;;;1.63;1.20;;;;;;;;;;5030414;28;20407;-78
2023/08/02 04:10:07;;;;;;;4.72;1.23;;;;;;;;;;5029009;28;20036;-77
2023/08/02 04:12:32;;;;;;;7.30;1.23;;;;;;;;;;5029438;28;20474;-77
2023/08/02 04:14:58;;;;;;;3.03;0.80;;;;;;;;;;5033895;28;20033;-77
2023/08/02 04:17:25;;;;;;;1.52;1.10;;;;;;;;;;5033981;28;20104;-77
2023/08/02 04:19:51;;;;;;;2.35;1.23;;;;;;;;;;5033262;28;20022;-77
2023/08/02 04:22:16;;;;;;;4.68;1.80;;;;;;;;;;5032331;28;20092;-76
2023/08/02 04:24:42;;;;;;;1.90;1.30;;;;;;;;;;5032453;28;20031;-77
2023/08/02 04:27:07;;;;;;;3.80;1.25;;;;;;;;;;5033733;28;20029;-77
2023/08/02 04:29:33;;;;;;;1.98;1.30;;;;;;;;;;5032708;28;20112;-76
2023/08/02 04:31:58;;;;;;;3.83;1.17;;;;;;;;;;5034488;28;20077;-76
2023/08/02 04:34:24;;;;;;;3.10;1.27;;;;;;;;;;5017027;28;20041;-77
2023/08/02 04:36:51;;;;;;;5.10;1.30;;;;;;;;;;5034304;28;20436;-76
2023/08/02 04:39:17;;;;;;;2.45;1.17;;;;;;;;;;5034500;28;20128;-77
2023/08/02 04:41:42;;;;;;;2.63;1.17;;;;;;;;;;5033515;28;20129;-77
2023/08/02 04:44:08;;;;;;;2.05;1.02;;;;;;;;;;5032955;28;20037;-77
2023/08/02 04:46:33;;;;;;;1.77;1.02;;;;;;;;;;5033526;28;20153;-77
2023/08/02 04:48:59;;;;;;;1.67;1.25;;;;;;;;;;5032846;28;20029;-78
2023/08/02 04:51:24;;;;;;;3.53;1.50;;;;;;;;;;5015731;28;20022;-80
2023/08/02 04:53:50;;;;;;;2.10;1.33;;;;;;;;;;5015471;28;20022;-78
2023/08/02 04:56:16;;;;;;;4.38;1.50;;;;;;;;;;5032902;28;20163;-77
2023/08/02 04:58:42;;;;;;;3.75;1.20;;;;;;;;;;5006018;28;20057;-71
2023/08/02 05:01:08;;;;;;;5.28;1.23;;;;;;;;;;5005289;28;20064;-78
2023/08/02 05:03:35;;;;;;;3.25;1.35;;;;;;;;;;5010472;28;20430;-75
2023/08/02 05:06:02;;;;;;;2.92;1.38;;;;;;;;;;5015270;28;20112;-76
2023/08/02 05:08:32;;;;;;;8.02;3.63;;;;;;;;;;5031002;28;20041;-76
2023/08/02 05:10:58;;;;;;;2.28;1.42;;;;;;;;;;5011983;28;20040;-75
2023/08/02 05:13:25;;;;;;;4.57;1.77;;;;;;;;;;5009794;28;20021;-75
2023/08/02 05:15:51;;;;;;;2.85;1.27;;;;;;;;;;5019812;28;20972;-76
2023/08/02 05:18:17;;;;;;;6.22;1.60;;;;;;;;;;5005651;28;20060;-77
2023/08/02 05:20:43;;;;;;;7.43;1.67;;;;;;;;;;5007839;28;20029;-77
2023/08/02 05:23:09;;;;;;;5.40;1.85;;;;;;;;;;5017176;28;20043;-78
2023/08/02 05:25:35;;;;;;;3.17;1.30;;;;;;;;;;5018844;28;20022;-77
2023/08/02 05:28:03;;;;;;;3.13;1.63;;;;;;;;;;5008286;28;20028;-79
2023/08/02 05:30:30;;;;;;;5.40;1.38;;;;;;;;;;4992902;28;20119;-79
2023/08/02 05:32:59;;;;;;;2.75;1.38;;;;;;;;;;5020515;28;20045;-78
2023/08/02 05:35:25;;;;;;;9.60;2.33;;;;;;;;;;5030573;28;20106;-81
2023/08/02 05:37:53;;;;;;;3.47;1.40;;;;;;;;;;5026180;28;20048;-78
2023/08/02 05:40:19;;;;;;;3.47;1.50;;;;;;;;;;5018313;28;20502;-76
2023/08/02 05:42:44;;;;;;;4.30;1.65;;;;;;;;;;5027210;28;20034;-77
2023/08/02 05:45:10;;;;;;;5.68;1.67;;;;;;;;;;5026254;28;20630;-78
2023/08/02 05:47:39;;;;;;;4.80;1.88;;;;;;;;;;5022776;28;20026;-77
2023/08/02 05:50:08;;;;;;;4.65;1.60;;;;;;;;;;5014959;28;20037;-77
2023/08/02 05:52:33;;;;;;;3.08;1.95;;;;;;;;;;5025990;28;20095;-78
2023/08/02 05:54:59;;;;;;;5.35;1.48;;;;;;;;;;5024800;28;20025;-75
2023/08/02 05:57:25;;;;;;;6.05;1.85;;;;;;;;;;5029418;28;20029;-82
2023/08/02 05:59:50;;;;;;;5.25;1.92;;;;;;;;;;5011367;28;20060;-78
2023/08/02 06:02:16;;;;;;;2.95;1.55;;;;;;;;;;5023693;28;20087;-79
2023/08/02 06:04:45;;;;;;;5.60;1.65;;;;;;;;;;5028664;28;20029;-79
2023/08/02 06:07:11;;;;;;;2.00;1.42;;;;;;;;;;5018347;28;20454;-79
2023/08/02 06:09:38;;;;;;;4.80;1.35;;;;;;;;;;5023341;28;20030;-79
2023/08/02 06:12:03;;;;;;;3.55;1.60;;;;;;;;;;5033685;28;20108;-78
2023/08/02 06:14:29;;;;;;;3.90;1.83;;;;;;;;;;5037541;28;20076;-80
2023/08/02 06:16:55;;;;;;;2.38;1.52;;;;;;;;;;5031094;28;20029;-80
2023/08/02 06:19:22;;;;;;;5.38;1.95;;;;;;;;;;5035347;28;20013;-81
2023/08/02 06:21:49;;;;;;;4.78;1.88;;;;;;;;;;5027477;28;20478;-78
2023/08/02 06:24:14;;;;;;;5.40;1.83;;;;;;;;;;5046900;28;20021;-79
2023/08/02 06:26:40;;;;;;;2.65;1.30;;;;;;;;;;5029406;28;20057;-78
2023/08/02 06:29:06;;;;;;;4.40;1.83;;;;;;;;;;5029412;28;20021;-78
2023/08/02 06:31:32;;;;;;;5.68;1.67;;;;;;;;;;5030912;28;20057;-79
2023/08/02 06:33:58;;;;;;;3.10;1.60;;;;;;;;;;5006413;28;20030;-77
2023/08/02 06:36:23;;;;;;;1.65;1.23;;;;;;;;;;5027140;28;20030;-78
2023/08/02 06:38:49;;;;;;;5.57;1.45;;;;;;;;;;5003042;28;20022;-79
2023/08/02 06:41:14;;;;;;;2.88;1.70;;;;;;;;;;5009598;28;20118;-78
2023/08/02 06:43:40;;;;;;;6.18;1.50;;;;;;;;;;4995776;28;20045;-79
2023/08/02 06:46:06;;;;;;;3.53;1.27;;;;;;;;;;4998270;28;20058;-78
2023/08/02 06:48:31;;;;;;;7.50;1.67;;;;;;;;;;5022337;28;20022;-78
2023/08/02 06:50:57;;;;;;;4.82;1.63;;;;;;;;;;5022802;28;20029;-76
2023/08/02 06:53:22;;;;;;;12.57;1.92;;;;;;;;;;5017635;28;20394;-78
2023/08/02 06:55:48;;;;;;;2.72;1.98;;;;;;;;;;5033249;28;20044;-78
2023/08/02 06:58:14;;;;;;;2.38;1.65;;;;;;;;;;5033303;28;20025;-78
2023/08/02 07:00:41;;;;;;;2.25;1.35;;;;;;;;;;5033058;28;20099;-77
2023/08/02 07:03:06;;;;;;;3.72;1.70;;;;;;;;;;5032979;28;20084;-79
2023/08/02 07:05:34;;;;;;;5.80;1.77;;;;;;;;;;5042216;28;20025;-78
2023/08/02 07:08:00;;;;;;;3.05;1.30;;;;;;;;;;5039582;28;20182;-78
2023/08/02 07:10:27;;;;;;;4.03;1.55;;;;;;;;;;5034647;28;20147;-79
2023/08/02 07:12:55;;;;;;;5.97;1.70;;;;;;;;;;5017531;28;20075;-78
2023/08/02 07:15:20;;;;;;;2.55;1.38;;;;;;;;;;5006680;28;20027;-78
2023/08/02 07:17:47;;;;;;;3.95;1.60;;;;;;;;;;5020247;28;20041;-78
2023/08/02 07:20:13;;;;;;;4.70;1.42;;;;;;;;;;5000949;28;20057;-78
2023/08/02 07:22:43;;;;;;;4.65;1.70;;;;;;;;;;5011721;28;20124;-77
2023/08/02 07:25:09;;;;;;;5.47;1.58;;;;;;;;;;4996743;28;20605;-78
2023/08/02 07:27:35;;;;;;;4.53;1.30;;;;;;;;;;4996889;28;20124;-80
2023/08/02 07:30:02;;;;;;;2.92;1.88;;;;;;;;;;5029842;28;20026;-78
2023/08/02 07:32:29;;;;;;;4.40;1.38;;;;;;;;;;5001836;28;20530;-79
2023/08/02 07:34:54;;;;;;;4.28;1.40;;;;;;;;;;4989282;28;20029;-79
2023/08/02 07:37:20;;;;;;;5.18;1.52;;;;;;;;;;4997629;28;20107;-78
2023/08/02 07:39:46;;;;;;;11.48;2.10;;;;;;;;;;4977651;28;20383;-79
2023/08/02 07:42:11;;;;;;;4.07;1.50;;;;;;;;;;5001885;28;20029;-78
2023/08/02 07:44:37;;;;;;;12.88;1.52;;;;;;;;;;5030551;28;20056;-78
2023/08/02 07:47:04;;;;;;;3.45;1.55;;;;;;;;;;4996387;28;20394;-79
2023/08/02 07:49:31;;;;;;;6.18;2.67;;;;;;;;;;5010327;28;20088;-77
2023/08/02 07:51:57;;;;;;;1.92;1.60;;;;;;;;;;5010379;28;20381;-78
2023/08/02 07:54:23;;;;;;;8.80;1.67;;;;;;;;;;5009356;28;20026;-80
2023/08/02 07:56:48;;;;;;;3.88;1.58;;;;;;;;;;5005768;28;20087;-80
2023/08/02 07:59:14;;;;;;;2.10;1.35;;;;;;;;;;5012564;28;20034;-77
2023/08/02 08:01:42;;;;;;;3.88;1.52;;;;;;;;;;5013463;28;20029;-77
2023/08/02 08:04:10;;;;;;;5.82;1.65;;;;;;;;;;5027616;28;20026;-78
2023/08/02 08:06:35;;;;;;;2.75;1.90;;;;;;;;;;5010183;28;20034;-78
2023/08/02 08:09:01;;;;;;;5.25;1.52;;;;;;;;;;5022374;28;20033;-79
2023/08/02 08:11:28;;;;;;;10.23;2.08;;;;;;;;;;5005722;28;20036;-76
2023/08/02 08:13:54;;;;;;;2.95;1.30;;;;;;;;;;5009751;28;20036;-78
2023/08/02 08:16:20;;;;;;;5.65;1.70;;;;;;;;;;5006567;28;20037;-74
2023/08/02 08:18:45;;;;;;;3.05;1.20;;;;;;;;;;5004181;28;20079;-75
2023/08/02 08:21:11;;;;;;;3.53;1.75;;;;;;;;;;5027626;28;20029;-77
2023/08/02 08:23:38;;;;;;;3.63;1.63;;;;;;;;;;5011386;28;20056;-79
2023/08/02 08:26:04;;;;;;;4.03;1.30;;;;;;;;;;5019755;28;20026;-76
2023/08/02 08:28:30;;;;;;;4.78;1.60;;;;;;;;;;5029198;28;20059;-76
2023/08/02 08:31:04;;;;;;;3.65;1.50;;;;;;;;;;5027035;28;20137;-78
2023/08/02 08:33:31;;;;;;;5.25;1.67;;;;;;;;;;5030233;28;20115;-78
2023/08/02 08:35:57;;;;;;;5.07;1.63;;;;;;;;;;5020423;28;20048;-78
2023/08/02 08:38:23;;;;;;;2.22;1.05;;;;;;;;;;5018859;28;20026;-78
2023/08/02 08:40:52;;;;;;;3.65;1.42;;;;;;;;;;5020821;28;20113;-78
2023/08/02 08:43:19;;;;;;;4.38;1.45;;;;;;;;;;5008275;28;20033;-79
2023/08/02 08:45:46;;;;;;;6.10;1.67;;;;;;;;;;5003687;28;20109;-76
2023/08/02 08:48:12;;;;;;;4.35;1.20;;;;;;;;;;5022513;28;20068;-78
2023/08/02 08:50:44;;;;;;;2.78;1.70;;;;;;;;;;5015716;28;20037;-77
2023/08/02 08:53:14;;;;;;;;;;;;;;;;;;5025555;28;20029;-80
2023/08/02 08:55:41;;;;;;;4.63;1.25;;;;;;;;;;5009578;28;19917;-77
2023/08/02 08:58:07;;;;;;;3.25;1.40;;;;;;;;;;5028940;28;20545;-80
2023/08/02 09:00:33;;;;;;;3.05;1.10;;;;;;;;;;5001815;28;20110;-76
2023/08/02 09:03:03;;;;;;;3.20;1.30;;;;;;;;;;5006926;28;20033;-76
2023/08/02 09:05:36;;;;;;;2.05;1.20;;;;;;;;;;5012372;28;20037;-77
2023/08/02 09:08:02;;;;;;;3.78;1.63;;;;;;;;;;5012793;28;20113;-76
2023/08/02 09:10:29;;;;;;;6.63;1.83;;;;;;;;;;5002349;28;20120;-78
2023/08/02 09:12:54;;;;;;;6.75;1.70;;;;;;;;;;5007298;28;20025;-75
2023/08/02 09:15:20;;;;;;;3.45;1.95;;;;;;;;;;5019724;28;20102;-78
2023/08/02 09:17:50;;;;;;;3.55;1.98;;;;;;;;;;5022340;28;20458;-79
2023/08/02 09:20:18;;;;;;;8.83;2.03;;;;;;;;;;5020129;28;20063;-77
2023/08/02 09:22:44;;;;;;;4.78;1.83;;;;;;;;;;5022213;28;20637;-78
2023/08/02 09:25:25;;;;;;;4.43;1.60;;;;;;;;;;5023724;28;20088;-77
2023/08/02 09:27:52;;;;;;;6.65;1.83;;;;;;;;;;4992354;28;20038;-80
2023/08/02 09:30:36;;;;;;;6.63;3.97;;;;;;;;;;5007674;28;20382;-73
2023/08/02 09:33:07;;;;;;;3.50;1.60;;;;;;;;;;5018605;28;20038;-79
2023/08/02 09:35:52;;;;;;;4.78;1.40;;;;;;;;;;5018784;28;20037;-78
2023/08/02 09:38:19;;;;;;;2.85;1.90;;;;;;;;;;5020012;28;20801;-78
2023/08/02 09:40:48;;;;;;;2.70;1.45;;;;;;;;;;5016117;28;20036;-77
2023/08/02 09:43:16;;;;;;;2.53;1.48;;;;;;;;;;5019870;28;20380;-76
2023/08/02 09:45:43;;;;;;;3.25;1.88;;;;;;;;;;5017808;28;20095;-76
2023/08/02 09:48:08;;;;;;;3.60;1.75;;;;;;;;;;5036568;28;20061;-75
2023/08/02 09:50:51;;;;;;;2.38;1.52;;;;;;;;;;5017224;28;20069;-77
2023/08/02 09:53:25;;;;;;;4.90;1.67;;;;;;;;;;5023873;28;20438;-79
2023/08/02 09:55:54;;;;;;;4.15;1.95;;;;;;;;;;4981734;28;20463;-79
2023/08/02 09:58:22;;;;;;;2.17;1.40;;;;;;;;;;5003990;28;20087;-78
2023/08/02 10:00:49;;;;;;;3.60;1.50;;;;;;;;;;4996598;28;20193;-78
2023/08/02 10:03:16;;;;;;;6.05;1.40;;;;;;;;;;5022925;28;20084;-77
2023/08/02 10:05:44;;;;;;;3.10;1.48;;;;;;;;;;5007680;28;20025;-77
2023/08/02 10:08:11;;;;;;;5.95;1.58;;;;;;;;;;5006716;28;20117;-79
2023/08/02 10:10:39;;;;;;;3.58;1.58;;;;;;;;;;5004373;28;20132;-79
2023/08/02 10:13:12;;;;;;;2.95;1.50;;;;;;;;;;4992043;28;20030;-79
2023/08/02 10:15:40;;;;;;;5.05;1.40;;;;;;;;;;4999654;28;20083;-79
2023/08/02 10:18:06;;;;;;;3.17;1.30;;;;;;;;;;4998037;28;20426;-78
2023/08/02 10:20:33;;;;;;;2.05;1.23;;;;;;;;;;5004263;28;20038;-78
2023/08/02 10:23:03;;;;;;;3.70;1.58;;;;;;;;;;5000806;28;20034;-80
2023/08/02 10:25:32;;;;;;;2.03;1.33;;;;;;;;;;5008457;28;20037;-77
2023/08/02 10:27:59;;;;;;;2.55;1.15;;;;;;;;;;4999062;28;20031;-78
2023/08/02 10:30:26;;;;;;;3.45;1.30;;;;;;;;;;5037846;28;20037;-77
2023/08/02 10:33:14;;;;;;;3.22;1.30;;;;;;;;;;5008217;28;20145;-77
2023/08/02 10:36:00;;;;;;;4.05;1.30;;;;;;;;;;5024953;28;20034;-77
2023/08/02 10:38:49;;;;;;;2.15;1.20;;;;;;;;;;4996973;28;20109;-77
2023/08/02 10:41:23;;;;;;;11.37;1.37;;;;;;;;;;4998617;28;20025;-77
2023/08/02 10:43:54;;;;;;;3.40;1.63;;;;;;;;;;5003364;28;20231;-74
2023/08/02 10:46:29;;;;;;;4.90;1.38;;;;;;;;;;5004097;28;20578;-79
2023/08/02 10:49:15;;;;;;;2.05;1.15;;;;;;;;;;5006041;28;20068;-77
2023/08/02 10:51:42;;;;;;;2.97;1.25;;;;;;;;;;5004251;28;20026;-77
2023/08/02 10:54:22;;;;;;;2.20;1.30;;;;;;;;;;5011872;28;20558;-78
2023/08/02 10:56:54;;;;;;;3.33;1.85;;;;;;;;;;5007629;28;20474;-77
2023/08/02 10:59:23;;;;;;;3.50;1.33;;;;;;;;;;5007615;28;20437;-78
2023/08/02 11:02:04;;;;;;;2.63;1.38;;;;;;;;;;5019024;28;20418;-77
2023/08/02 11:04:32;;;;;;;4.53;1.23;;;;;;;;;;5016003;28;20038;-77
2023/08/02 11:07:12;;;;;;;3.58;1.52;;;;;;;;;;5003601;28;20061;-79
2023/08/02 11:09:37;;;;;;;6.32;1.40;;;;;;;;;;4999527;28;20475;-78
2023/08/02 11:12:11;;;;;;;2.00;1.27;;;;;;;;;;5001613;28;20064;-79
2023/08/02 11:14:38;;;;;;;12.85;1.88;;;;;;;;;;4998124;28;20032;-76
2023/08/02 11:17:04;;;;;;;2.38;1.50;;;;;;;;;;5001962;28;20390;-79
2023/08/02 11:19:31;;;;;;;3.22;1.23;;;;;;;;;;5005151;28;20038;-78
2023/08/02 11:21:59;;;;;;;3.90;1.85;;;;;;;;;;4999873;28;20032;-79
2023/08/02 11:24:25;;;;;;;2.45;1.35;;;;;;;;;;4998071;28;20038;-77
2023/08/02 11:26:55;;;;;;;1.55;1.10;;;;;;;;;;5004154;28;20092;-79
2023/08/02 11:29:21;;;;;;;5.03;1.27;;;;;;;;;;4999170;28;20347;-76
2023/08/02 11:31:51;;;;;;;3.67;1.55;;;;;;;;;;5000057;28;20039;-78
2023/08/02 11:34:19;;;;;;;6.60;1.27;;;;;;;;;;4991058;28;20029;-77
2023/08/02 11:36:51;;;;;;;3.08;1.42;;;;;;;;;;4992406;28;20034;-79
2023/08/02 11:39:18;;;;;;;3.67;1.92;;;;;;;;;;4988785;28;20455;-79
2023/08/02 11:41:44;;;;;;;2.95;1.75;;;;;;;;;;4986192;28;20052;-76
2023/08/02 11:44:18;;;;;;;4.38;1.25;;;;;;;;;;5012857;28;20083;-77
2023/08/02 11:46:54;;;;;;;2.53;1.27;;;;;;;;;;4996115;28;20095;-77
2023/08/02 11:49:20;;;;;;;2.08;1.40;;;;;;;;;;5006727;28;20052;-78
2023/08/02 11:51:45;;;;;;;2.80;1.02;;;;;;;;;;5022912;28;20045;-78
2023/08/02 11:54:12;;;;;;;1.27;1.00;;;;;;;;;;5010018;28;20081;-79
2023/08/02 11:56:38;;;;;;;2.88;1.90;;;;;;;;;;4992558;28;20098;-78
2023/08/02 11:59:07;;;;;;;3.15;1.45;;;;;;;;;;5017233;28;20402;-81
2023/08/02 12:01:32;;;;;;;2.38;1.65;;;;;;;;;;4985841;28;20026;-77
2023/08/02 12:04:05;;;;;;;3.05;1.50;;;;;;;;;;4990953;28;20036;-79
2023/08/02 12:06:44;;;;;;;3.38;1.60;;;;;;;;;;4986615;28;20443;-76
2023/08/02 12:09:10;;;;;;;3.70;1.83;;;;;;;;;;4985202;28;20584;-78
2023/08/02 12:11:35;;;;;;;6.57;1.90;;;;;;;;;;4997190;28;20125;-78
2023/08/02 12:14:02;;;;;;;3.05;1.30;;;;;;;;;;4979960;28;20022;-80
2023/08/02 12:16:48;;;;;;;4.63;1.70;;;;;;;;;;4980246;28;20065;-80
2023/08/02 12:19:13;;;;;;;2.95;1.70;;;;;;;;;;4985763;28;20037;-77
2023/08/02 12:21:39;;;;;;;3.75;1.25;;;;;;;;;;4976801;28;20403;-78
2023/08/02 12:24:20;;;;;;;2.55;1.33;;;;;;;;;;4982926;28;20105;-78
2023/08/02 12:26:45;;;;;;;10.70;2.08;;;;;;;;;;4983701;28;20480;-77
2023/08/02 12:29:22;;;;;;;3.08;1.33;;;;;;;;;;4979393;28;20107;-77
2023/08/02 12:31:48;;;;;;;3.30;1.60;;;;;;;;;;5001955;28;20077;-77
2023/08/02 12:34:13;;;;;;;3.42;1.45;;;;;;;;;;5005668;28;20038;-78
2023/08/02 12:36:40;;;;;;;1.65;1.23;;;;;;;;;;5008447;28;20033;-78
2023/08/02 12:39:08;;;;;;;3.72;1.27;;;;;;;;;;5001029;28;20040;-78
2023/08/02 12:41:34;;;;;;;3.17;1.25;;;;;;;;;;5016592;28;20026;-80
2023/08/02 12:44:00;;;;;;;2.10;1.33;;;;;;;;;;4998192;28;20087;-78
2023/08/02 12:46:25;;;;;;;1.30;1.15;;;;;;;;;;5016828;28;20137;-77
2023/08/02 12:48:51;;;;;;;2.10;1.40;;;;;;;;;;5010562;28;20033;-80
2023/08/02 12:51:16;;;;;;;2.08;1.55;;;;;;;;;;4995465;28;20030;-77
2023/08/02 12:53:42;;;;;;;2.15;1.30;;;;;;;;;;5005559;28;20041;-77
2023/08/02 12:56:08;;;;;;;3.10;1.30;;;;;;;;;;4996981;28;20034;-79
2023/08/02 12:58:34;;;;;;;5.18;1.58;;;;;;;;;;5002047;28;20057;-79
2023/08/02 13:01:01;;;;;;;1.48;1.15;;;;;;;;;;5016975;28;20034;-78
2023/08/02 13:03:26;;;;;;;1.67;1.35;;;;;;;;;;5008293;28;20072;-77
2023/08/02 13:05:52;;;;;;;1.88;1.20;;;;;;;;;;5004935;28;20060;-78
2023/08/02 13:08:21;;;;;;;2.88;1.30;;;;;;;;;;5009145;28;20037;-77
2023/08/02 13:10:47;;;;;;;3.08;1.70;;;;;;;;;;5014183;28;20143;-80
2023/08/02 13:13:15;;;;;;;2.85;1.27;;;;;;;;;;5009310;28;20033;-81
2023/08/02 13:15:42;;;;;;;1.90;1.50;;;;;;;;;;4999132;28;20037;-79
2023/08/02 13:18:08;;;;;;;1.88;1.40;;;;;;;;;;5023331;28;20474;-79
2023/08/02 13:20:33;;;;;;;2.30;1.55;;;;;;;;;;5005170;28;20038;-77
2023/08/02 13:22:59;;;;;;;3.38;1.60;;;;;;;;;;5004842;28;20128;-77
2023/08/02 13:25:25;;;;;;;5.93;1.40;;;;;;;;;;5003669;28;21288;-78
2023/08/02 13:27:50;;;;;;;2.28;1.33;;;;;;;;;;5005417;28;20014;-78
2023/08/02 13:30:16;;;;;;;2.25;1.10;;;;;;;;;;5007134;28;20044;-78
2023/08/02 13:32:42;;;;;;;6.50;1.40;;;;;;;;;;4998301;28;20034;-77
2023/08/02 13:35:08;;;;;;;3.03;1.52;;;;;;;;;;5007149;28;20029;-77
2023/08/02 13:37:35;;;;;;;2.47;1.50;;;;;;;;;;5013007;28;20454;-76
2023/08/02 13:40:01;;;;;;;2.97;1.73;;;;;;;;;;5012003;28;20032;-78
2023/08/02 13:42:28;;;;;;;3.28;1.40;;;;;;;;;;5010777;28;20026;-78
2023/08/02 13:44:54;;;;;;;1.77;1.15;;;;;;;;;;5011749;28;20075;-77
2023/08/02 13:47:21;;;;;;;3.50;1.20;;;;;;;;;;4999997;28;20045;-78
2023/08/02 13:49:46;;;;;;;4.00;1.60;;;;;;;;;;5007599;28;20033;-76
2023/08/02 13:52:12;;;;;;;1.88;1.13;;;;;;;;;;5009513;28;20056;-77
2023/08/02 13:54:38;;;;;;;3.03;1.70;;;;;;;;;;5006317;28;20099;-79
2023/08/02 13:57:03;;;;;;;1.90;1.63;;;;;;;;;;5004086;28;20498;-77
2023/08/02 13:59:29;;;;;;;2.22;1.38;;;;;;;;;;5003028;28;20034;-78
2023/08/02 14:01:54;;;;;;;2.25;1.70;;;;;;;;;;5009725;28;20022;-77
2023/08/02 14:04:20;;;;;;;1.80;1.40;;;;;;;;;;4998673;28;20072;-78
2023/08/02 14:06:45;;;;;;;2.95;1.83;;;;;;;;;;5007561;28;20075;-78
2023/08/02 14:09:11;;;;;;;3.20;1.63;;;;;;;;;;5006890;28;20060;-77
2023/08/02 14:11:36;;;;;;;4.78;1.50;;;;;;;;;;5004617;28;20064;-76
2023/08/02 14:14:02;;;;;;;2.25;1.65;;;;;;;;;;5010461;28;20053;-77
2023/08/02 14:16:28;;;;;;;2.80;1.73;;;;;;;;;;5005921;28;20463;-77
2023/08/02 14:18:53;;;;;;;6.28;1.90;;;;;;;;;;5008394;28;20021;-78
2023/08/02 14:21:19;;;;;;;3.33;2.10;;;;;;;;;;5019558;28;20026;-79
2023/08/02 14:23:47;;;;;;;2.83;1.88;;;;;;;;;;5009899;28;20748;-77
2023/08/02 14:26:13;;;;;;;3.08;1.98;;;;;;;;;;5009315;28;20021;-78
2023/08/02 14:28:38;;;;;;;4.22;2.05;;;;;;;;;;4995399;28;20670;-78
2023/08/02 14:31:05;;;;;;;3.95;2.22;;;;;;;;;;4998707;28;20148;-77
2023/08/02 14:33:31;;;;;;;2.70;1.73;;;;;;;;;;5010251;28;20466;-78
2023/08/02 14:35:56;;;;;;;6.13;2.00;;;;;;;;;;5006374;28;20036;-77
2023/08/02 14:38:22;;;;;;;4.78;2.00;;;;;;;;;;5009994;28;20026;-78
2023/08/02 14:40:49;;;;;;;4.20;2.00;;;;;;;;;;4986456;28;20424;-78
2023/08/02 14:43:15;;;;;;;3.72;2.13;;;;;;;;;;5004492;28;20053;-79